Time;durP1;ratioP1;P1;durP2;ratioP2;P2;SDS_P1;SDS_P2;PMS_P1;PMS_P2;Temp;Humidity;BMP_temperature;BMP_pressure;BME280_temperature;BME280_humidity;BME280_pressure;Samples;Min_cycle;Max_cycle;Signal;HPM_P1;HPM_P2
2023/09/10 00:00:52;;;;;;;9.85;8.27;;;;;;;19.99;81.66;100977.94;5037700;28;20048;-82
2023/09/10 00:03:19;;;;;;;11.98;9.18;;;;;;;19.99;82.08;100975.28;5034871;28;20495;-84
2023/09/10 00:05:45;;;;;;;9.05;7.45;;;;;;;20.01;81.24;100970.75;5036200;28;20133;-83
2023/09/10 00:08:12;;;;;;;11.75;8.57;;;;;;;20.03;80.89;100968.88;5050244;28;20055;-82
2023/09/10 00:10:39;;;;;;;13.95;9.60;;;;;;;20.06;81.09;100974.06;5051762;28;20127;-83
2023/09/10 00:13:06;;;;;;;10.27;8.55;;;;;;;20.05;81.03;100976.78;5034239;28;20051;-82
2023/09/10 00:15:32;;;;;;;11.27;8.35;;;;;;;20.03;81.14;100976.00;5037689;28;20040;-83
2023/09/10 00:17:59;;;;;;;10.50;8.38;;;;;;;20.00;81.43;100979.66;5048381;28;20145;-84
2023/09/10 00:20:27;;;;;;;9.43;7.28;;;;;;;19.97;80.92;100977.13;5051079;28;20044;-83
2023/09/10 00:22:53;;;;;;;12.48;9.02;;;;;;;19.93;81.56;100975.53;5049668;28;20044;-83
2023/09/10 00:25:20;;;;;;;12.13;9.52;;;;;;;19.90;81.94;100973.00;5040589;28;20040;-83
2023/09/10 00:27:47;;;;;;;14.70;10.35;;;;;;;19.87;82.08;100975.78;5035098;28;20059;-83
2023/09/10 00:30:14;;;;;;;14.48;11.05;;;;;;;19.83;82.37;100975.94;5036435;28;20102;-83
2023/09/10 00:32:40;;;;;;;11.13;9.98;;;;;;;19.76;82.80;100970.91;5034158;28;20103;-81
2023/09/10 00:35:09;;;;;;;12.60;7.90;;;;;;;19.70;82.86;100972.03;5051178;28;20075;-83
2023/09/10 00:37:35;;;;;;;8.05;7.10;;;;;;;19.73;82.63;100969.25;5064357;28;20045;-84
2023/09/10 00:40:04;;;;;;;9.77;8.77;;;;;;;19.74;83.14;100975.44;5053161;28;20036;-83
2023/09/10 00:42:30;;;;;;;8.68;7.60;;;;;;;19.72;82.63;100985.25;5050302;28;20071;-84
2023/09/10 00:44:59;;;;;;;12.18;8.45;;;;;;;19.61;84.69;100983.06;5069861;28;20690;-84
2023/09/10 00:47:27;;;;;;;9.63;7.68;;;;;;;19.60;84.30;100979.50;5054780;28;20047;-84
2023/09/10 00:49:55;;;;;;;9.88;8.77;;;;;;;19.62;84.02;100984.75;5055922;28;20046;-84
2023/09/10 00:52:22;;;;;;;9.13;7.22;;;;;;;19.63;83.78;100981.19;5055926;28;20044;-82
2023/09/10 00:54:50;;;;;;;11.75;7.82;;;;;;;19.60;83.97;100979.50;5035786;28;20072;-85
2023/09/10 00:57:17;;;;;;;9.43;6.63;;;;;;;19.59;84.31;100983.09;5048554;28;20037;-84
2023/09/10 00:59:44;;;;;;;10.95;7.38;;;;;;;19.59;84.54;100984.88;5066714;28;20051;-84
2023/09/10 01:02:14;;;;;;;9.18;7.68;;;;;;;19.56;84.18;100985.88;5038082;28;20036;-83
2023/09/10 01:04:40;;;;;;;11.88;8.52;;;;;;;19.51;85.90;100986.06;5038814;28;20661;-83
2023/09/10 01:07:07;;;;;;;8.00;7.00;;;;;;;19.49;85.14;100990.59;5051987;28;20615;-82
2023/09/10 01:09:36;;;;;;;9.23;7.05;;;;;;;19.49;85.89;100979.97;5039809;28;20044;-83
2023/09/10 01:12:21;;;;;;;16.05;7.63;;;;;;;19.44;85.76;100986.41;5038172;28;20105;-84
2023/09/10 01:15:08;;;;;;;10.63;7.45;;;;;;;19.44;86.29;100979.28;5034603;28;20098;-82
2023/09/10 01:17:43;;;;;;;7.82;7.05;;;;;;;19.45;85.74;100980.13;5051433;28;20486;-83
2023/09/10 01:20:40;;;;;;;9.55;6.10;;;;;;;19.43;86.24;100982.88;5052296;28;20153;-83
2023/09/10 01:23:16;;;;;;;9.45;7.00;;;;;;;19.39;86.59;100978.59;5072238;28;20128;-84
2023/09/10 01:25:44;;;;;;;7.32;6.60;;;;;;;19.39;86.32;100983.91;5051856;28;20036;-82
2023/09/10 01:28:11;;;;;;;10.57;6.68;;;;;;;19.41;86.01;100983.84;5053804;28;20048;-84
2023/09/10 01:30:41;;;;;;;6.88;6.03;;;;;;;19.40;85.79;100974.16;5037719;28;20053;-84
2023/09/10 01:33:22;;;;;;;9.20;6.45;;;;;;;19.37;86.10;100983.09;5052053;28;20510;-81
2023/09/10 01:36:00;;;;;;;9.95;6.68;;;;;;;19.39;86.28;100983.91;5052547;28;20090;-81
2023/09/10 01:38:46;;;;;;;7.85;6.75;;;;;;;19.30;87.30;100984.28;5033213;28;20049;-84
2023/09/10 01:41:20;;;;;;;8.82;6.68;;;;;;;19.28;87.21;100986.13;5071294;28;20128;-83
2023/09/10 01:43:48;;;;;;;8.45;6.03;;;;;;;19.26;87.13;100985.34;5034492;28;20044;-84
2023/09/10 01:46:16;;;;;;;8.45;6.85;;;;;;;19.28;87.02;100984.38;5067972;28;20045;-82
2023/09/10 01:48:45;;;;;;;8.10;7.03;;;;;;;19.24;87.18;100984.53;5033735;28;20045;-84
2023/09/10 01:51:14;;;;;;;9.63;7.13;;;;;;;19.21;87.88;100985.53;5051284;28;20041;-84
2023/09/10 01:53:41;;;;;;;7.88;7.00;;;;;;;19.17;88.10;100983.91;5019128;28;20044;-83
2023/09/10 01:56:08;;;;;;;6.10;5.57;;;;;;;19.14;88.19;100981.41;5044137;28;20052;-84
2023/09/10 01:58:35;;;;;;;8.98;7.03;;;;;;;19.13;88.96;100988.47;5035885;28;20486;-81
2023/09/10 02:01:03;;;;;;;10.43;7.00;;;;;;;19.09;89.29;100984.22;5049125;28;20056;-83
2023/09/10 02:03:30;;;;;;;7.43;6.72;;;;;;;19.07;89.19;100991.34;5051459;28;20080;-83
2023/09/10 02:05:58;;;;;;;7.00;6.30;;;;;;;19.11;89.35;100984.16;5066627;28;20048;-84
2023/09/10 02:08:28;;;;;;;8.00;6.82;;;;;;;19.15;88.96;100986.63;5050743;28;20064;-82
2023/09/10 02:10:54;;;;;;;7.75;6.95;;;;;;;19.15;89.38;100991.94;5035604;28;20763;-83
2023/09/10 02:13:21;;;;;;;10.88;7.57;;;;;;;19.10;89.47;100987.72;5034658;28;20055;-83
2023/09/10 02:15:48;;;;;;;8.23;7.43;;;;;;;19.01;90.21;100991.63;5031721;28;20044;-83
2023/09/10 02:18:15;;;;;;;8.57;7.70;;;;;;;18.93;90.58;100985.72;5050056;28;20051;-82
2023/09/10 02:20:41;;;;;;;7.28;6.68;;;;;;;18.89;90.89;100994.69;5035206;28;20049;-83
2023/09/10 02:23:09;;;;;;;10.32;7.50;;;;;;;18.92;90.92;100999.94;5051765;28;20052;-83
2023/09/10 02:25:38;;;;;;;11.05;7.05;;;;;;;18.96;91.06;100998.91;5031640;28;20048;-82
2023/09/10 02:28:05;;;;;;;12.02;7.38;;;;;;;18.97;91.22;101001.47;5031035;28;20098;-82
2023/09/10 02:30:32;;;;;;;8.88;7.38;;;;;;;19.00;91.09;100996.03;5048251;28;20064;-81
2023/09/10 02:32:58;;;;;;;9.30;7.82;;;;;;;18.96;91.00;100999.75;5065170;28;20041;-85
2023/09/10 02:35:28;;;;;;;8.18;7.40;;;;;;;18.90;91.15;101004.44;5050633;28;20419;-83
2023/09/10 02:37:55;;;;;;;7.70;6.97;;;;;;;18.85;91.42;101000.13;5047836;28;20814;-81
2023/09/10 02:40:21;;;;;;;9.55;8.38;;;;;;;18.80;92.16;101003.91;5035086;28;20607;-83
2023/09/10 02:42:48;;;;;;;15.75;8.93;;;;;;;18.73;92.47;101008.53;5039111;28;20049;-84
2023/09/10 02:45:15;;;;;;;9.88;8.65;;;;;;;18.71;93.68;101012.16;5053013;28;20462;-84
2023/09/10 02:47:42;;;;;;;11.05;9.93;;;;;;;18.68;94.88;101013.16;5033766;28;20102;-84
2023/09/10 02:50:10;;;;;;;10.07;8.10;;;;;;;18.69;94.70;101017.53;5049553;28;20571;-82
2023/09/10 02:52:36;;;;;;;13.70;9.40;;;;;;;18.68;95.11;101013.16;5045719;28;20047;-81
2023/09/10 02:55:06;;;;;;;11.52;10.35;;;;;;;18.69;96.41;101017.53;5049100;28;20048;-83
2023/09/10 02:57:33;;;;;;;11.95;9.65;;;;;;;18.65;97.24;101016.78;5050558;28;20063;-83
2023/09/10 03:00:00;;;;;;;13.57;11.32;;;;;;;18.65;97.25;101018.56;5034567;28;20052;-83
2023/09/10 03:02:27;;;;;;;17.48;11.82;;;;;;;18.67;98.76;101014.09;5031817;28;20159;-81
2023/09/10 03:04:59;;;;;;;17.17;13.63;;;;;;;18.64;100.00;101023.03;5061365;28;20049;-82
2023/09/10 03:07:26;;;;;;;18.95;14.73;;;;;;;18.61;100.00;101017.81;5032484;28;20049;-84
2023/09/10 03:09:53;;;;;;;18.83;16.10;;;;;;;18.60;100.00;101016.06;5033299;28;20132;-83
2023/09/10 03:12:28;;;;;;;19.98;15.88;;;;;;;18.60;100.00;101012.56;5036179;28;20045;-83
2023/09/10 03:14:58;;;;;;;21.35;17.42;;;;;;;18.63;100.00;101016.00;5049060;28;20139;-83
2023/09/10 03:17:25;;;;;;;22.95;18.98;;;;;;;18.62;100.00;101013.41;5049039;28;20041;-81
2023/09/10 03:19:54;;;;;;;21.38;18.60;;;;;;;18.60;100.00;101015.22;5035065;28;20063;-83
2023/09/10 03:22:22;;;;;;;22.85;19.15;;;;;;;18.58;100.00;101017.09;5064336;28;20053;-82
2023/09/10 03:24:55;;;;;;;33.88;23.20;;;;;;;18.55;100.00;101011.88;5033821;28;20055;-81
2023/09/10 03:27:21;;;;;;;32.75;23.02;;;;;;;18.53;100.00;101019.91;5046559;28;20036;-83
2023/09/10 03:29:48;;;;;;;25.00;22.33;;;;;;;18.46;100.00;101024.56;5030923;28;20046;-83
2023/09/10 03:32:15;;;;;;;26.88;22.33;;;;;;;18.42;100.00;101022.94;5048556;28;20049;-81
2023/09/10 03:34:42;;;;;;;29.88;23.05;;;;;;;18.38;100.00;101010.69;5048258;28;20048;-82
2023/09/10 03:37:09;;;;;;;26.13;23.33;;;;;;;18.37;100.00;101008.09;5049107;28;20057;-82
2023/09/10 03:39:36;;;;;;;23.85;20.45;;;;;;;18.32;100.00;101006.50;5034596;28;20048;-83
2023/09/10 03:42:08;;;;;;;30.70;25.75;;;;;;;18.32;100.00;101008.28;5048350;28;20151;-81
2023/09/10 03:44:34;;;;;;;27.63;23.67;;;;;;;18.28;100.00;101010.16;5048449;28;20132;-84
2023/09/10 03:47:01;;;;;;;31.20;26.52;;;;;;;18.26;100.00;101016.44;5034119;28;20103;-81
2023/09/10 03:49:28;;;;;;;34.78;24.38;;;;;;;18.21;100.00;101016.59;5049131;28;20045;-83
2023/09/10 03:51:57;;;;;;;31.48;25.52;;;;;;;18.18;100.00;101014.06;5051795;28;20049;-84
2023/09/10 03:54:23;;;;;;;34.35;25.92;;;;;;;18.11;100.00;101001.97;5043894;28;20045;-83
2023/09/10 03:56:50;;;;;;;38.58;27.35;;;;;;;18.11;100.00;101009.91;5065566;28;20057;-81
2023/09/10 03:59:18;;;;;;;31.33;26.80;;;;;;;18.09;100.00;101012.59;5031798;28;20083;-83
2023/09/10 04:01:44;;;;;;;34.05;27.88;;;;;;;18.09;100.00;101009.94;5050284;28;20044;-83
2023/09/10 04:04:11;;;;;;;35.50;27.38;;;;;;;18.07;100.00;101009.16;5049426;28;20499;-81
2023/09/10 04:06:38;;;;;;;33.78;28.08;;;;;;;18.06;100.00;101007.41;5051076;28;20051;-83
2023/09/10 04:09:07;;;;;;;32.83;25.95;;;;;;;18.06;100.00;101012.72;5016258;28;20053;-81
2023/09/10 04:11:34;;;;;;;35.22;28.15;;;;;;;18.04;100.00;101009.22;5030564;28;20052;-84
2023/09/10 04:14:01;;;;;;;33.35;29.38;;;;;;;18.02;100.00;101011.09;5017079;28;20052;-83
2023/09/10 04:16:28;;;;;;;35.65;29.83;;;;;;;18.00;100.00;101012.91;5031996;28;20518;-82
2023/09/10 04:18:55;;;;;;;33.83;28.05;;;;;;;17.98;100.00;101005.03;5011594;28;20825;-82
2023/09/10 04:21:25;;;;;;;33.20;28.25;;;;;;;17.93;100.00;101004.31;5028441;28;20247;-83
2023/09/10 04:23:51;;;;;;;37.15;30.52;;;;;;;17.95;100.00;101004.25;5031551;28;20745;-82
2023/09/10 04:26:19;;;;;;;42.00;32.53;;;;;;;17.95;100.00;101013.09;5014046;28;20046;-85
2023/09/10 04:28:46;;;;;;;41.95;32.42;;;;;;;17.94;100.00;101010.47;5013694;28;20132;-84
2023/09/10 04:31:16;;;;;;;39.60;31.20;;;;;;;17.91;100.00;101013.19;5009126;28;20073;-82
2023/09/10 04:33:43;;;;;;;38.20;29.80;;;;;;;17.91;100.00;101021.13;5012006;28;20539;-82
2023/09/10 04:36:10;;;;;;;42.33;31.73;;;;;;;17.93;100.00;101020.19;5028984;28;20047;-82
2023/09/10 04:38:37;;;;;;;39.97;33.35;;;;;;;17.92;100.00;101025.53;5029925;28;20111;-82
2023/09/10 04:41:03;;;;;;;37.45;29.23;;;;;;;17.94;100.00;101021.06;5006517;28;20054;-82
2023/09/10 04:43:30;;;;;;;43.40;34.67;;;;;;;17.95;100.00;101023.69;5018421;28;20452;-83
2023/09/10 04:45:57;;;;;;;42.28;32.40;;;;;;;17.93;100.00;101020.19;5013890;28;20113;-82
2023/09/10 04:48:24;;;;;;;38.95;31.52;;;;;;;17.90;100.00;101028.22;5023451;28;20586;-83
2023/09/10 04:50:50;;;;;;;35.17;29.05;;;;;;;17.89;100.00;101030.94;5028164;28;20037;-81
2023/09/10 04:53:17;;;;;;;36.63;30.33;;;;;;;17.85;100.00;101038.97;5012172;28;20038;-83
2023/09/10 04:55:44;;;;;;;42.63;32.28;;;;;;;17.82;100.00;101038.19;5022641;28;20135;-83
2023/09/10 04:58:13;;;;;;;39.83;32.55;;;;;;;17.84;100.00;101041.66;5012911;28;20512;-82
2023/09/10 05:00:41;;;;;;;38.80;32.83;;;;;;;17.86;100.00;101046.00;5013677;28;20050;-82
2023/09/10 05:03:08;;;;;;;43.50;32.90;;;;;;;17.90;100.00;101045.88;5014129;28;20159;-81
2023/09/10 05:05:34;;;;;;;39.92;32.88;;;;;;;17.89;100.00;101052.13;5015829;28;20072;-81
2023/09/10 05:08:01;;;;;;;37.13;29.77;;;;;;;17.90;100.00;101048.53;5040858;28;21073;-81
2023/09/10 05:10:27;;;;;;;45.50;32.53;;;;;;;17.92;100.00;101049.38;5053639;28;20063;-83
2023/09/10 05:12:56;;;;;;;39.92;32.35;;;;;;;17.92;100.00;101052.00;5044150;28;20086;-83
2023/09/10 05:15:23;;;;;;;39.53;32.58;;;;;;;17.91;100.00;101058.22;5040119;28;20122;-84
2023/09/10 05:17:49;;;;;;;40.25;32.13;;;;;;;17.95;100.00;101051.94;5048228;28;20705;-83
2023/09/10 05:20:16;;;;;;;45.95;35.10;;;;;;;17.98;100.00;101055.34;5041243;28;20048;-82
2023/09/10 05:22:43;;;;;;;40.63;33.35;;;;;;;18.02;100.00;101056.97;5050759;28;20040;-80
2023/09/10 05:25:10;;;;;;;35.50;30.13;;;;;;;18.01;100.00;101054.38;5034924;28;20521;-83
2023/09/10 05:27:37;;;;;;;36.88;32.03;;;;;;;18.04;100.00;101067.50;5069724;28;20051;-83
2023/09/10 05:30:05;;;;;;;46.92;31.95;;;;;;;18.06;100.00;101065.69;5054589;28;20037;-83
2023/09/10 05:32:32;;;;;;;44.70;32.50;;;;;;;18.08;100.00;101061.22;5055054;28;20127;-84
2023/09/10 05:35:01;;;;;;;40.33;32.85;;;;;;;18.15;100.00;101072.47;5049816;28;20070;-84
2023/09/10 05:37:28;;;;;;;42.65;33.17;;;;;;;18.17;100.00;101074.16;5053204;28;20046;-82
2023/09/10 05:39:54;;;;;;;39.75;32.40;;;;;;;18.22;100.00;101073.97;5053068;28;20052;-83
2023/09/10 05:42:21;;;;;;;43.35;36.00;;;;;;;18.28;100.00;101080.88;5044665;28;20052;-81
2023/09/10 05:44:52;;;;;;;39.50;33.83;;;;;;;18.30;100.00;101074.59;5051227;28;20118;-83
2023/09/10 05:47:20;;;;;;;42.35;31.67;;;;;;;18.35;100.00;101071.78;5041671;28;20132;-83
2023/09/10 05:49:52;;;;;;;40.83;32.20;;;;;;;18.39;100.00;101077.84;5040189;28;20076;-83
2023/09/10 05:52:19;;;;;;;36.95;30.77;;;;;;;18.41;100.00;101073.34;5055293;28;20815;-84
2023/09/10 05:54:45;;;;;;;43.25;33.88;;;;;;;18.41;100.00;101082.16;5070361;28;20052;-83
2023/09/10 05:57:12;;;;;;;42.05;31.88;;;;;;;18.42;100.00;101081.25;5039439;28;20711;-85
2023/09/10 05:59:39;;;;;;;35.63;30.88;;;;;;;18.43;100.00;101084.75;5057130;28;20044;-82
2023/09/10 06:02:06;;;;;;;37.65;30.98;;;;;;;18.46;100.00;101079.34;5034057;28;20051;-81
2023/09/10 06:04:33;;;;;;;42.33;31.83;;;;;;;18.49;100.00;101072.16;5038863;28;20040;-82
2023/09/10 06:07:03;;;;;;;37.72;30.88;;;;;;;18.54;100.00;101074.66;5056043;28;20041;-81
2023/09/10 06:09:31;;;;;;;39.53;31.65;;;;;;;18.59;100.00;101077.13;5051505;28;20055;-83
2023/09/10 06:12:02;;;;;;;37.72;32.90;;;;;;;18.66;100.00;101082.16;5042732;28;20056;-80
2023/09/10 06:14:30;;;;;;;38.83;30.60;;;;;;;18.74;100.00;101081.88;5054004;28;20105;-82
2023/09/10 06:17:01;;;;;;;39.15;31.90;;;;;;;18.84;100.00;101080.63;5038628;28;20041;-82
2023/09/10 06:19:27;;;;;;;38.95;31.92;;;;;;;18.96;100.00;101087.28;5032948;28;20045;-82
2023/09/10 06:21:55;;;;;;;37.90;30.63;;;;;;;19.01;100.00;101084.47;5043025;28;20055;-82
2023/09/10 06:24:22;;;;;;;39.83;32.55;;;;;;;19.15;100.00;101082.16;5042893;28;20098;-83
2023/09/10 06:26:51;;;;;;;38.40;31.70;;;;;;;19.29;100.00;101080.78;5035305;28;20071;-81
2023/09/10 06:29:21;;;;;;;43.65;32.47;;;;;;;19.56;100.00;101083.28;5038345;28;20040;-82
2023/09/10 06:31:47;;;;;;;41.10;33.58;;;;;;;20.25;100.00;101091.09;5055139;28;20070;-84
2023/09/10 06:34:14;;;;;;;38.40;31.45;;;;;;;21.16;98.51;101086.25;5046967;28;20574;-81
2023/09/10 06:36:41;;;;;;;32.92;27.90;;;;;;;23.02;89.60;101087.66;5032083;28;20041;-85
2023/09/10 06:39:08;;;;;;;38.53;30.20;;;;;;;24.71;79.81;101087.81;5048518;28;20058;-84
2023/09/10 06:41:34;;;;;;;39.88;27.95;;;;;;;25.72;73.83;101084.13;5039593;28;20048;-82
2023/09/10 06:44:01;;;;;;;34.45;28.25;;;;;;;26.28;69.42;101093.88;5054356;28;20049;-84
2023/09/10 06:46:28;;;;;;;32.85;27.67;;;;;;;26.79;62.55;101093.06;5059038;28;20028;-81
2023/09/10 06:48:54;;;;;;;34.88;26.88;;;;;;;27.30;61.78;101090.31;5060619;28;20054;-83
2023/09/10 06:51:21;;;;;;;28.85;23.90;;;;;;;27.77;59.85;101095.84;5062207;28;20047;-82
2023/09/10 06:53:48;;;;;;;32.33;27.20;;;;;;;28.05;57.64;101105.41;5052481;28;20584;-84
2023/09/10 06:56:17;;;;;;;27.35;23.15;;;;;;;28.46;55.79;101099.66;5056201;28;20079;-83
2023/09/10 06:58:44;;;;;;;33.35;25.85;;;;;;;28.67;54.30;101099.88;5065788;28;20043;-83
2023/09/10 07:01:12;;;;;;;25.45;22.67;;;;;;;28.99;53.86;101101.81;5034668;28;20051;-82
2023/09/10 07:03:39;;;;;;;28.60;25.17;;;;;;;29.09;52.41;101104.66;5057402;28;20040;-83
2023/09/10 07:06:06;;;;;;;29.88;24.63;;;;;;;29.26;51.52;101101.44;5075011;28;20048;-84
2023/09/10 07:08:36;;;;;;;29.55;25.42;;;;;;;28.99;51.24;101108.06;5040409;28;20453;-82
2023/09/10 07:11:03;;;;;;;30.33;26.90;;;;;;;28.92;50.49;101112.22;5040816;28;20105;-82
2023/09/10 07:13:30;;;;;;;29.58;25.60;;;;;;;28.91;50.78;101113.22;5056348;28;20056;-83
2023/09/10 07:15:57;;;;;;;29.13;25.90;;;;;;;28.99;50.87;101110.75;5060579;28;20047;-83
2023/09/10 07:18:24;;;;;;;28.23;25.13;;;;;;;29.06;50.63;101108.44;5075498;28;20422;-83
2023/09/10 07:20:50;;;;;;;29.92;26.15;;;;;;;29.04;49.99;101113.94;5034181;28;20108;-85
2023/09/10 07:23:17;;;;;;;28.60;25.50;;;;;;;29.35;49.75;101111.50;5041162;28;20076;-87
2023/09/10 07:25:44;;;;;;;26.80;23.05;;;;;;;29.65;49.24;101107.25;5035768;28;20579;-88
2023/09/10 07:28:11;;;;;;;28.60;23.60;;;;;;;30.06;47.68;101110.19;5037992;28;20097;-85
2023/09/10 07:30:40;;;;;;;27.42;24.65;;;;;;;30.25;47.37;101109.50;5047052;28;20044;-84
2023/09/10 07:33:14;;;;;;;25.80;23.13;;;;;;;30.17;47.61;101114.72;5061202;28;20055;-84
2023/09/10 07:35:41;;;;;;;28.17;24.90;;;;;;;30.03;47.62;101111.31;5054229;28;20093;-83
2023/09/10 07:38:08;;;;;;;28.35;24.17;;;;;;;30.13;47.10;101110.53;5077296;28;20052;-82
2023/09/10 07:40:35;;;;;;;25.88;22.50;;;;;;;30.36;46.95;101113.97;5033652;28;20106;-85
2023/09/10 07:43:02;;;;;;;27.80;24.85;;;;;;;29.98;47.55;101121.63;5036758;28;20056;-81
2023/09/10 07:45:29;;;;;;;26.13;22.60;;;;;;;30.53;46.69;101115.25;5060073;28;20045;-82
2023/09/10 07:47:56;;;;;;;24.77;22.13;;;;;;;31.04;45.44;101118.91;5039404;28;20037;-83
2023/09/10 07:50:23;;;;;;;25.77;22.90;;;;;;;31.03;44.84;101122.63;5033874;28;20044;-85
2023/09/10 07:52:50;;;;;;;24.38;21.80;;;;;;;31.60;43.70;101124.78;5059847;28;20045;-83
2023/09/10 07:55:17;;;;;;;22.23;19.80;;;;;;;31.93;42.88;101125.41;5038391;28;20045;-86
2023/09/10 07:57:43;;;;;;;25.15;20.15;;;;;;;32.34;42.43;101126.16;5052542;28;20052;-84
2023/09/10 08:00:11;;;;;;;24.38;21.20;;;;;;;32.08;41.82;101117.72;5031230;28;20057;-85
2023/09/10 08:02:37;;;;;;;23.30;20.98;;;;;;;32.07;42.05;101122.31;5054737;28;20051;-85
2023/09/10 08:05:05;;;;;;;21.45;18.95;;;;;;;31.92;42.55;101134.56;5039710;28;20032;-87
2023/09/10 08:07:33;;;;;;;22.83;20.40;;;;;;;31.90;42.05;101134.72;5057623;28;20454;-86
2023/09/10 08:10:00;;;;;;;22.95;20.25;;;;;;;32.24;41.95;101130.72;5056162;28;20045;-82
2023/09/10 08:12:33;;;;;;;20.85;18.83;;;;;;;31.88;42.17;101136.69;5039411;28;20041;-84
2023/09/10 08:15:00;;;;;;;22.27;19.92;;;;;;;31.62;42.92;101134.50;5036256;28;20073;-85
2023/09/10 08:17:27;;;;;;;22.35;19.52;;;;;;;31.66;43.10;101132.41;5030629;28;20095;-85
2023/09/10 08:19:53;;;;;;;19.75;17.85;;;;;;;32.38;41.71;101137.56;5049237;28;20601;-84
2023/09/10 08:22:20;;;;;;;22.77;18.05;;;;;;;32.87;40.92;101134.72;5035345;28;20699;-86
2023/09/10 08:24:48;;;;;;;20.02;17.92;;;;;;;32.62;40.11;101134.34;5031583;28;20052;-85
2023/09/10 08:27:15;;;;;;;16.35;14.73;;;;;;;32.71;39.85;101133.50;5034136;28;20663;-84
2023/09/10 08:29:44;;;;;;;19.55;16.90;;;;;;;32.70;39.72;101137.19;5032855;28;20060;-84
2023/09/10 08:32:10;;;;;;;21.52;19.25;;;;;;;32.97;39.01;101133.72;5058823;28;20044;-82
2023/09/10 08:34:37;;;;;;;17.73;15.88;;;;;;;33.08;38.61;101126.41;5052515;28;20040;-85
2023/09/10 08:37:05;;;;;;;21.52;19.45;;;;;;;33.10;38.04;101127.06;5030766;28;20151;-84
2023/09/10 08:39:32;;;;;;;17.88;15.90;;;;;;;33.15;38.99;101130.19;5033613;28;20059;-84
2023/09/10 08:42:09;;;;;;;18.48;16.42;;;;;;;33.33;37.47;101133.00;5067032;28;20057;-85
2023/09/10 08:44:36;;;;;;;28.27;22.45;;;;;;;33.58;38.07;101127.84;5062320;28;20045;-85
2023/09/10 08:47:08;;;;;;;16.90;15.30;;;;;;;33.59;35.98;101127.69;5044305;28;20071;-84
2023/09/10 08:49:40;;;;;;;15.20;11.88;;;;;;;33.83;36.17;101128.97;5054166;28;20025;-83
2023/09/10 08:52:08;;;;;;;11.75;10.30;;;;;;;34.12;34.80;101134.16;5033495;28;20122;-84
2023/09/10 08:54:35;;;;;;;10.25;9.43;;;;;;;34.24;35.00;101137.47;5033515;28;20131;-82
2023/09/10 08:57:04;;;;;;;9.25;8.45;;;;;;;34.23;34.88;101129.50;5029915;28;20451;-82
2023/09/10 08:59:32;;;;;;;10.73;9.73;;;;;;;34.82;33.63;101132.44;5045528;28;20049;-83
2023/09/10 09:01:59;;;;;;;10.80;9.73;;;;;;;34.95;33.19;101137.47;5037129;28;20045;-84
2023/09/10 09:04:27;;;;;;;13.40;11.10;;;;;;;34.84;32.96;101135.91;5066078;28;20041;-83
2023/09/10 09:07:02;;;;;;;11.27;10.25;;;;;;;34.45;33.97;101139.03;5053979;28;20102;-83
2023/09/10 09:09:35;;;;;;;13.10;11.63;;;;;;;33.80;35.74;101138.28;5040469;28;20135;-84
2023/09/10 09:12:05;;;;;;;10.77;9.90;;;;;;;34.30;34.33;101139.59;5039146;28;20045;-83
2023/09/10 09:14:32;;;;;;;12.07;10.98;;;;;;;34.59;33.99;101140.34;5035790;28;20098;-83
2023/09/10 09:16:59;;;;;;;11.85;10.65;;;;;;;34.39;33.81;101143.25;5041640;28;20037;-83
2023/09/10 09:19:30;;;;;;;11.15;10.05;;;;;;;34.15;33.92;101145.75;5053342;28;20045;-83
2023/09/10 09:21:59;;;;;;;11.45;10.43;;;;;;;33.71;34.62;101141.03;5053024;28;20099;-83
2023/09/10 09:24:26;;;;;;;11.50;10.35;;;;;;;33.24;35.70;101139.31;5052036;28;20052;-83
2023/09/10 09:27:01;;;;;;;11.18;10.07;;;;;;;33.38;36.12;101144.25;5050549;28;20047;-84
2023/09/10 09:29:34;;;;;;;11.25;10.13;;;;;;;34.19;34.62;101131.66;5043012;28;20055;-83
2023/09/10 09:32:01;;;;;;;12.05;10.85;;;;;;;33.65;35.67;101137.09;5059205;28;20131;-83
2023/09/10 09:34:27;;;;;;;12.23;11.13;;;;;;;33.85;35.16;101135.09;5040120;28;20069;-83
2023/09/10 09:36:54;;;;;;;12.18;11.05;;;;;;;34.58;34.15;101138.63;5044105;28;20053;-83
2023/09/10 09:39:21;;;;;;;11.63;10.45;;;;;;;34.73;34.02;101139.75;5039572;28;20053;-85
2023/09/10 09:41:51;;;;;;;12.50;11.30;;;;;;;34.48;34.57;101136.00;5060841;28;20040;-84
2023/09/10 09:44:22;;;;;;;12.35;11.15;;;;;;;34.95;33.75;101135.63;5057937;28;20556;-83
2023/09/10 09:46:49;;;;;;;12.30;11.23;;;;;;;34.91;33.59;101130.66;5059191;28;20079;-83
2023/09/10 09:49:16;;;;;;;12.65;11.10;;;;;;;35.33;32.78;101129.84;5044520;28;20052;-84
2023/09/10 09:51:44;;;;;;;11.50;10.35;;;;;;;32.90;37.54;101129.03;5067123;28;20058;-84
2023/09/10 09:54:11;;;;;;;11.27;9.05;;;;;;;34.74;34.52;101121.53;5067415;28;20495;-83
2023/09/10 09:56:44;;;;;;;11.15;10.25;;;;;;;35.19;33.82;101116.84;5061948;28;20033;-82
2023/09/10 09:59:17;;;;;;;10.35;9.35;;;;;;;35.33;33.73;101123.53;5041113;28;20045;-83
2023/09/10 10:01:45;;;;;;;12.18;11.07;;;;;;;35.52;32.84;101122.44;5058739;28;20041;-83
2023/09/10 10:04:15;;;;;;;10.48;9.57;;;;;;;35.51;33.03;101120.72;5059430;28;20185;-83
2023/09/10 10:06:45;;;;;;;9.75;8.85;;;;;;;36.36;32.26;101122.34;5061066;28;20048;-84
2023/09/10 10:09:11;;;;;;;9.63;8.73;;;;;;;36.95;31.04;101115.75;5066668;28;20128;-83
2023/09/10 10:11:39;;;;;;;10.35;9.55;;;;;;;36.46;31.17;101111.28;5058501;28;20518;-82
2023/09/10 10:14:07;;;;;;;10.13;9.25;;;;;;;36.49;31.30;101113.63;5056217;28;20049;-84
2023/09/10 10:16:34;;;;;;;9.88;8.90;;;;;;;36.56;31.30;101109.22;5064084;28;20045;-83
2023/09/10 10:19:01;;;;;;;10.43;9.43;;;;;;;36.99;30.70;101112.50;5039407;28;20059;-84
2023/09/10 10:21:29;;;;;;;10.65;9.50;;;;;;;36.26;31.38;101111.59;5070981;28;20054;-83
2023/09/10 10:23:56;;;;;;;8.82;7.78;;;;;;;37.11;30.94;101112.13;5054860;28;20078;-83
2023/09/10 10:26:24;;;;;;;9.43;8.45;;;;;;;37.37;30.46;101106.38;5054163;28;20052;-84
2023/09/10 10:28:51;;;;;;;9.77;8.88;;;;;;;37.36;30.70;101101.94;5056082;28;20438;-84
2023/09/10 10:31:21;;;;;;;8.52;7.82;;;;;;;35.54;33.32;101095.88;5055342;28;20078;-83
2023/09/10 10:34:10;;;;;;;8.30;7.55;;;;;;;35.61;32.93;101094.19;5039334;28;20435;-82
2023/09/10 10:37:34;;;;;;;11.00;9.80;;;;;;;37.32;30.49;101098.72;5043618;28;20067;-84
2023/09/10 10:40:14;;;;;;;11.02;8.77;;;;;;;37.82;30.74;101092.94;4958212;28;20058;-84
2023/09/10 10:42:49;;;;;;;11.65;10.52;;;;;;;36.71;31.71;101085.66;5053119;28;20094;-83
2023/09/10 10:45:17;;;;;;;9.05;8.35;;;;;;;36.80;31.86;101089.16;5070467;28;20048;-83
2023/09/10 10:47:48;;;;;;;8.98;8.15;;;;;;;38.21;30.03;101081.84;5074933;28;20040;-83
2023/09/10 10:50:25;;;;;;;10.23;8.73;;;;;;;38.73;29.36;101087.47;5050880;28;20063;-84
2023/09/10 10:53:19;;;;;;;9.35;8.65;;;;;;;39.05;28.72;101077.16;5039337;28;20094;-83
2023/09/10 10:55:50;;;;;;;9.68;8.77;;;;;;;38.74;29.30;101080.97;5056970;28;20132;-83
2023/09/10 10:58:19;;;;;;;9.95;7.88;;;;;;;38.77;29.03;101079.75;5038799;28;20127;-83
2023/09/10 11:00:53;;;;;;;9.40;8.50;;;;;;;37.93;30.30;101077.97;5053744;28;20502;-84
2023/09/10 11:03:21;;;;;;;7.53;6.82;;;;;;;38.27;29.51;101077.53;5065681;28;20045;-85
2023/09/10 11:05:53;;;;;;;10.48;8.23;;;;;;;37.59;31.53;101071.91;5042238;28;20059;-84
2023/09/10 11:08:30;;;;;;;10.18;8.82;;;;;;;36.36;31.48;101068.69;5056507;28;20040;-83
2023/09/10 11:10:58;;;;;;;8.05;7.30;;;;;;;37.01;30.45;101071.38;5032623;28;20048;-85
2023/09/10 11:13:26;;;;;;;7.63;7.07;;;;;;;38.13;29.23;101078.31;5064688;28;20060;-82
2023/09/10 11:16:05;;;;;;;6.97;6.47;;;;;;;37.85;29.01;101070.72;5055046;28;20101;-84
2023/09/10 11:18:38;;;;;;;6.10;5.57;;;;;;;38.89;27.51;101072.72;5050030;28;20122;-83